Terminal Aerodrome Forecast
Issued by NWS

Home | Current Version | Previous Version | Text Only | Print | Product List | Glossary On
Versions: 1 2 3 4 5 6 7 8 9 10 11 12 13 14 15 16
000
FTUS42 KMLB 280535
TAFTIX
TAF
KTIX 280535Z 2806/2906 24012KT P6SM OVC070
     FM280800 32011KT P6SM SCT250
     FM281800 31012G18KT P6SM SKC
     FM282200 30011KT P6SM FEW250
      AMD NOT SKED TIL 281200=

USA.gov is the U.S. government's official web portal to all federal, state and local government web resources and services.